Terminal Aerodrome Forecast
Issued by NWS

Home | Current Version | Previous Version | Text Only | Print | Product List | Glossary Off
Versions: 1 2 3 4 5 6 7 8 9 10 11 12 13 14 15 16 17 18 19 20 21 22 23 24

000
FTUS43 KGRB 261533 AAB
TAFMTW
TAF AMD
KMTW 261533Z 2616/2712 18009KT 5SM BR BKN006
     FM261700 16011KT 5SM -SHRA BR BKN015
      TEMPO 2618/2621 2SM TSRA BR BKN006CB
     FM262100 12010KT 3SM -SHRA BKN020 OVC040 WS020/16030KT
      TEMPO 2700/2702 1SM TSRA BR BKN018CB
     FM270300 23008KT 2SM -DZ BR OVC004 WS020/22040KT
     FM271000 23008KT P6SM SCT025 OVC040=

USA.gov is the U.S. government's official web portal to all federal, state and local government web resources and services.